createdAt,value
2022-08-27T00:01:50.939Z,3.47
2022-08-27T00:04:56.106Z,3.20
2022-08-27T00:07:59.903Z,3.67
2022-08-27T00:11:03.514Z,3.30
2022-08-27T00:14:07.339Z,3.00
2022-08-27T00:17:11.164Z,3.00
2022-08-27T00:20:20.012Z,3.10
2022-08-27T00:23:23.580Z,3.10
2022-08-27T00:26:27.774Z,2.07
2022-08-27T00:29:31.415Z,2.63
2022-08-27T00:32:35.090Z,2.63
2022-08-27T00:35:40.381Z,3.13
2022-08-27T00:38:44.156Z,2.60
2022-08-27T00:41:48.524Z,2.63
2022-08-27T00:44:52.288Z,2.83
2022-08-27T00:48:00.330Z,2.63
2022-08-27T00:51:07.214Z,2.73
2022-08-27T00:54:18.628Z,3.37
2022-08-27T00:57:22.807Z,2.40
2022-08-27T01:00:26.623Z,2.10
2022-08-27T01:03:30.511Z,2.47
2022-08-27T01:06:38.919Z,2.10
2022-08-27T01:09:45.228Z,2.10
2022-08-27T01:12:53.635Z,2.47
2022-08-27T01:15:59.123Z,2.47
2022-08-27T01:19:05.389Z,2.47
2022-08-27T01:22:21.977Z,2.70
2022-08-27T01:25:30.127Z,2.43
2022-08-27T01:28:37.547Z,2.20
2022-08-27T01:31:41.578Z,2.53
2022-08-27T01:34:46.432Z,2.67
2022-08-27T01:37:54.432Z,2.40
2022-08-27T01:41:03.374Z,2.30
2022-08-27T01:44:06.990Z,2.90
2022-08-27T01:47:10.824Z,2.47
2022-08-27T01:50:18.883Z,3.03
2022-08-27T01:53:26.680Z,2.13
2022-08-27T01:56:31.698Z,2.50
2022-08-27T01:59:39.536Z,2.50
2022-08-27T02:02:44.607Z,2.10
2022-08-27T02:05:50.001Z,2.30
2022-08-27T02:08:53.608Z,3.23
2022-08-27T02:11:58.738Z,2.60
2022-08-27T02:15:02.406Z,2.30
2022-08-27T02:18:09.196Z,2.17
2022-08-27T02:21:14.288Z,2.37
2022-08-27T02:24:18.482Z,2.13
2022-08-27T02:27:23.475Z,2.57
2022-08-27T02:30:28.319Z,2.13
2022-08-27T02:33:33.480Z,2.90
2022-08-27T02:36:38.380Z,2.27
2022-08-27T02:39:45.992Z,2.27
2022-08-27T02:42:51.679Z,2.87
2022-08-27T02:45:55.508Z,2.77
2022-08-27T02:48:59.263Z,3.17
2022-08-27T02:52:03.902Z,2.90
2022-08-27T02:55:09.539Z,2.90
2022-08-27T02:58:17.381Z,3.77
2022-08-27T03:01:21.663Z,3.07
2022-08-27T03:04:25.399Z,3.23
2022-08-27T03:07:29.121Z,2.60
2022-08-27T03:10:33.059Z,2.67
2022-08-27T03:13:39.626Z,3.10
2022-08-27T03:16:43.248Z,3.37
2022-08-27T03:19:45.919Z,3.17
2022-08-27T03:22:49.616Z,2.53
2022-08-27T03:25:57.099Z,2.70
2022-08-27T03:29:02.147Z,2.57
2022-08-27T03:32:08.058Z,2.77
2022-08-27T03:35:12.667Z,2.57
2022-08-27T03:38:16.932Z,3.10
2022-08-27T03:41:21.167Z,2.73
2022-08-27T03:44:26.741Z,2.43
2022-08-27T03:47:30.401Z,3.10
2022-08-27T03:50:34.962Z,2.70
2022-08-27T03:53:41.968Z,2.70
2022-08-27T03:56:45.601Z,2.73
2022-08-27T03:59:50.528Z,2.70
2022-08-27T04:02:58.404Z,2.40
2022-08-27T04:06:03.619Z,3.37
2022-08-27T04:09:07.301Z,2.30
2022-08-27T04:12:11.579Z,2.23
2022-08-27T04:15:17.860Z,2.80
2022-08-27T04:18:21.586Z,2.83
2022-08-27T04:21:25.741Z,2.37
2022-08-27T04:24:31.367Z,2.47
2022-08-27T04:27:36.406Z,2.23
2022-08-27T04:30:44.468Z,2.30
2022-08-27T04:33:50.595Z,2.33
2022-08-27T04:36:57.861Z,2.50
2022-08-27T04:40:01.746Z,2.50
2022-08-27T04:43:05.446Z,2.23
2022-08-27T04:46:10.652Z,2.83
2022-08-27T04:49:16.856Z,3.10
2022-08-27T04:52:22.264Z,2.53
2022-08-27T04:55:25.877Z,2.27
2022-08-27T04:58:30.049Z,2.80
2022-08-27T05:01:36.397Z,2.50
2022-08-27T05:04:42.200Z,2.37
2022-08-27T05:07:46.235Z,1.90
2022-08-27T05:10:52.610Z,2.40
2022-08-27T05:13:56.379Z,2.17
2022-08-27T05:17:03.430Z,2.50
2022-08-27T05:20:09.443Z,2.70
2022-08-27T05:23:14.059Z,2.57
2022-08-27T05:26:17.992Z,2.17
2022-08-27T05:29:22.294Z,2.47
2022-08-27T05:32:27.303Z,2.87
2022-08-27T05:35:33.086Z,2.70
2022-08-27T05:38:36.967Z,2.10
2022-08-27T05:41:40.703Z,2.70
2022-08-27T05:44:44.303Z,2.57
2022-08-27T05:47:49.548Z,2.30
2022-08-27T05:50:53.467Z,2.73
2022-08-27T05:53:59.941Z,2.10
2022-08-27T05:57:03.488Z,2.37
2022-08-27T06:00:26.970Z,2.10
2022-08-27T06:03:32.338Z,2.20
2022-08-27T06:06:40.215Z,2.00
2022-08-27T06:09:44.025Z,2.30
2022-08-27T06:12:47.678Z,3.20
2022-08-27T06:15:51.697Z,2.20
2022-08-27T06:18:57.711Z,2.13
2022-08-27T06:22:09.950Z,2.23
2022-08-27T06:25:14.578Z,2.43
2022-08-27T06:28:18.679Z,2.13
2022-08-27T06:31:26.789Z,2.13
2022-08-27T06:34:31.994Z,2.03
2022-08-27T06:37:36.759Z,2.00
2022-08-27T06:40:42.901Z,1.73
2022-08-27T06:43:47.255Z,2.33
2022-08-27T06:46:51.643Z,2.40
2022-08-27T06:49:57.731Z,1.57
2022-08-27T06:53:01.371Z,2.47
2022-08-27T06:56:05.359Z,2.37
2022-08-27T06:59:12.451Z,2.10
2022-08-27T07:02:16.477Z,2.17
2022-08-27T07:05:23.735Z,1.87
2022-08-27T07:08:27.402Z,2.07
2022-08-27T07:11:32.747Z,1.63
2022-08-27T07:14:38.291Z,2.10
2022-08-27T07:17:44.677Z,2.20
2022-08-27T07:20:50.073Z,2.07
2022-08-27T07:24:09.624Z,1.87
2022-08-27T07:27:13.231Z,1.90
2022-08-27T07:30:20.565Z,1.93
2022-08-27T07:33:25.863Z,1.93
2022-08-27T07:36:31.608Z,2.30
2022-08-27T07:39:35.340Z,2.17
2022-08-27T07:42:56.779Z,2.27
2022-08-27T07:46:03.956Z,1.50
2022-08-27T07:49:09.468Z,2.70
2022-08-27T07:52:16.206Z,2.27
2022-08-27T07:55:21.006Z,1.97
2022-08-27T07:58:26.257Z,1.83
2022-08-27T08:01:31.626Z,2.50
2022-08-27T08:04:35.576Z,1.83
2022-08-27T08:07:40.945Z,1.70
2022-08-27T08:10:44.655Z,2.23
2022-08-27T08:13:49.717Z,1.93
2022-08-27T08:16:53.981Z,2.37
2022-08-27T08:20:24.148Z,1.63
2022-08-27T08:23:26.867Z,1.93
2022-08-27T08:26:30.980Z,1.77
2022-08-27T08:29:34.762Z,1.90
2022-08-27T08:32:39.234Z,1.80
2022-08-27T08:35:43.119Z,2.00
2022-08-27T08:38:49.552Z,2.00
2022-08-27T08:41:57.560Z,1.87
2022-08-27T08:45:04.432Z,2.00
2022-08-27T08:48:13.907Z,1.70
2022-08-27T08:51:25.551Z,1.73
2022-08-27T08:54:35.231Z,1.97
2022-08-27T08:57:49.685Z,2.07
2022-08-27T09:00:58.429Z,2.13
2022-08-27T09:04:08.381Z,2.07
2022-08-27T09:07:25.424Z,1.90
2022-08-27T09:10:40.152Z,2.00
2022-08-27T09:13:50.667Z,1.60
2022-08-27T09:16:56.327Z,2.13
2022-08-27T09:20:01.240Z,1.60
2022-08-27T09:23:25.567Z,1.80
2022-08-27T09:26:34.075Z,2.27
2022-08-27T09:29:50.530Z,2.00
2022-08-27T09:32:56.914Z,2.77
2022-08-27T09:36:06.127Z,2.00
2022-08-27T09:39:10.296Z,2.20
2022-08-27T09:42:29.895Z,1.67
2022-08-27T09:45:35.056Z,1.60
2022-08-27T09:48:39.483Z,1.90
2022-08-27T09:51:47.619Z,2.00
2022-08-27T09:54:55.758Z,1.83
2022-08-27T09:58:01.543Z,1.50
2022-08-27T10:01:19.088Z,1.87
2022-08-27T10:04:29.024Z,1.70
2022-08-27T10:07:44.831Z,2.00
2022-08-27T10:10:58.230Z,1.80
2022-08-27T10:14:13.869Z,1.93
2022-08-27T10:17:29.656Z,2.10
2022-08-27T10:20:48.451Z,1.87
2022-08-27T10:24:21.844Z,2.03
2022-08-27T10:27:34.903Z,2.30
2022-08-27T10:31:09.444Z,1.93
2022-08-27T10:34:31.362Z,1.70
2022-08-27T10:37:51.798Z,1.43
2022-08-27T10:41:04.994Z,1.60
2022-08-27T10:44:27.063Z,2.90
2022-08-27T10:47:52.336Z,1.70
2022-08-27T10:51:09.874Z,2.10
2022-08-27T10:54:28.134Z,2.27
2022-08-27T10:58:03.163Z,1.40
2022-08-27T11:01:22.108Z,2.60
2022-08-27T11:04:33.461Z,1.70
2022-08-27T11:07:45.896Z,1.30
2022-08-27T11:10:55.476Z,1.90
2022-08-27T11:14:01.212Z,2.10
2022-08-27T11:17:12.751Z,1.97
2022-08-27T11:20:25.788Z,1.50
2022-08-27T11:23:38.538Z,1.33
2022-08-27T11:26:44.154Z,1.50
2022-08-27T11:30:00.056Z,1.30
2022-08-27T11:33:17.123Z,2.10
2022-08-27T11:37:03.796Z,1.80
2022-08-27T11:40:40.299Z,2.57
2022-08-27T11:43:45.759Z,1.77
2022-08-27T11:46:54.457Z,1.20
2022-08-27T11:50:01.190Z,1.50
2022-08-27T11:53:08.417Z,2.07
2022-08-27T11:56:16.155Z,1.87
2022-08-27T11:59:30.108Z,1.53
2022-08-27T12:02:33.773Z,1.67
2022-08-27T12:05:45.532Z,1.87
2022-08-27T12:08:51.870Z,1.87
2022-08-27T12:12:08.519Z,1.80
2022-08-27T12:15:23.978Z,1.60
2022-08-27T12:18:52.835Z,1.63
2022-08-27T12:22:24.315Z,1.87
2022-08-27T12:25:30.023Z,1.33
2022-08-27T12:28:33.645Z,2.30
2022-08-27T12:31:43.506Z,1.40
2022-08-27T12:35:01.666Z,2.47
2022-08-27T12:38:17.581Z,1.73
2022-08-27T12:41:44.142Z,1.40
2022-08-27T12:44:48.845Z,2.10
2022-08-27T12:47:54.631Z,1.10
2022-08-27T12:51:04.070Z,1.37
2022-08-27T12:54:30.291Z,1.47
2022-08-27T12:57:47.681Z,1.30
2022-08-27T13:01:25.816Z,1.53
2022-08-27T13:04:33.939Z,1.33
2022-08-27T13:07:44.498Z,1.73
2022-08-27T13:10:48.351Z,1.47
2022-08-27T13:14:04.956Z,2.10
2022-08-27T13:17:13.120Z,1.40
2022-08-27T13:20:22.493Z,1.50
2022-08-27T13:23:28.088Z,1.40
2022-08-27T13:26:37.532Z,1.17
2022-08-27T13:29:44.746Z,1.67
2022-08-27T13:32:49.766Z,1.17
2022-08-27T13:35:53.575Z,1.37
2022-08-27T13:38:57.883Z,1.83
2022-08-27T13:42:05.602Z,1.30
2022-08-27T13:45:12.823Z,1.33
2022-08-27T13:48:22.365Z,1.30
2022-08-27T13:51:32.623Z,2.03
2022-08-27T13:54:37.022Z,1.20
2022-08-27T13:57:46.104Z,1.10
2022-08-27T14:00:51.178Z,2.00
2022-08-27T14:04:02.760Z,1.47
2022-08-27T14:07:15.479Z,1.70
2022-08-27T14:10:42.938Z,1.57
2022-08-27T14:13:49.345Z,1.40
2022-08-27T14:17:02.318Z,1.93
2022-08-27T14:20:09.469Z,1.83
2022-08-27T14:23:13.121Z,1.00
2022-08-27T14:26:18.418Z,1.40
2022-08-27T14:29:23.119Z,1.57
2022-08-27T14:32:28.196Z,1.77
2022-08-27T14:35:34.959Z,1.60
2022-08-27T14:38:42.988Z,1.30
2022-08-27T14:41:46.635Z,1.77
2022-08-27T14:44:51.924Z,1.40
2022-08-27T14:48:02.142Z,1.50
2022-08-27T14:51:14.679Z,1.63
2022-08-27T14:54:18.305Z,1.33
2022-08-27T14:57:22.746Z,1.60
2022-08-27T15:00:27.082Z,1.70
2022-08-27T15:03:32.791Z,1.27
2022-08-27T15:06:36.504Z,1.43
2022-08-27T15:09:41.340Z,1.77
2022-08-27T15:12:45.275Z,1.50
2022-08-27T15:15:49.071Z,1.57
2022-08-27T15:19:00.819Z,1.70
2022-08-27T15:22:16.956Z,1.43
2022-08-27T15:25:22.452Z,1.47
2022-08-27T15:28:26.150Z,1.80
2022-08-27T15:31:29.994Z,1.93
2022-08-27T15:34:35.141Z,1.70
2022-08-27T15:37:39.372Z,1.10
2022-08-27T15:40:43.569Z,1.87
2022-08-27T15:43:47.792Z,1.53
2022-08-27T15:46:52.069Z,1.53
2022-08-27T15:49:57.288Z,1.60
2022-08-27T15:53:06.863Z,2.67
2022-08-27T15:56:11.098Z,1.43
2022-08-27T15:59:17.477Z,1.73
2022-08-27T16:02:25.423Z,1.87
2022-08-27T16:05:36.887Z,2.20
2022-08-27T16:08:42.298Z,1.70
2022-08-27T16:11:46.167Z,1.60
2022-08-27T16:14:50.340Z,2.00
2022-08-27T16:17:58.832Z,2.30
2022-08-27T16:21:05.996Z,1.97
2022-08-27T16:24:10.758Z,2.17
2022-08-27T16:27:14.584Z,2.07
2022-08-27T16:30:19.974Z,2.53
2022-08-27T16:33:24.736Z,2.30
2022-08-27T16:36:30.661Z,1.70
2022-08-27T16:39:38.660Z,2.03
2022-08-27T16:42:47.792Z,2.40
2022-08-27T16:45:53.496Z,2.57
2022-08-27T16:49:14.754Z,2.43
2022-08-27T16:52:20.885Z,2.47
2022-08-27T16:55:24.571Z,2.30
2022-08-27T16:58:31.507Z,3.00
2022-08-27T17:01:35.985Z,2.67
2022-08-27T17:04:41.822Z,2.40
2022-08-27T17:07:52.482Z,2.50
2022-08-27T17:10:57.812Z,2.20
2022-08-27T17:14:04.569Z,2.70
2022-08-27T17:17:09.605Z,2.47
2022-08-27T17:20:15.223Z,2.60
2022-08-27T17:23:25.530Z,2.50
2022-08-27T17:26:30.623Z,2.73
2022-08-27T17:29:34.218Z,3.20
2022-08-27T17:32:43.750Z,2.47
2022-08-27T17:35:47.665Z,2.33
2022-08-27T17:38:53.935Z,2.97
2022-08-27T17:41:58.487Z,2.90
2022-08-27T17:45:02.153Z,2.83
2022-08-27T17:48:14.091Z,3.27
2022-08-27T17:51:22.217Z,2.43
2022-08-27T17:54:36.981Z,2.40
2022-08-27T17:57:41.518Z,2.47
2022-08-27T18:00:45.350Z,2.70
2022-08-27T18:03:49.651Z,3.30
2022-08-27T18:06:59.602Z,2.80
2022-08-27T18:10:05.196Z,2.40
2022-08-27T18:13:10.070Z,3.27
2022-08-27T18:16:13.738Z,3.00
2022-08-27T18:19:17.424Z,2.97
2022-08-27T18:22:21.822Z,2.40
2022-08-27T18:25:35.914Z,3.33
2022-08-27T18:28:40.147Z,3.17
2022-08-27T18:31:44.851Z,3.03
2022-08-27T18:34:48.740Z,3.17
2022-08-27T18:37:53.031Z,3.33
2022-08-27T18:40:58.286Z,2.53
2022-08-27T18:44:02.404Z,2.90
2022-08-27T18:47:06.849Z,2.90
2022-08-27T18:50:17.250Z,3.33
2022-08-27T18:53:21.834Z,4.53
2022-08-27T18:56:30.543Z,3.63
2022-08-27T18:59:39.939Z,3.60
2022-08-27T19:02:47.801Z,3.47
2022-08-27T19:05:56.381Z,3.20
2022-08-27T19:09:02.377Z,3.57
2022-08-27T19:12:13.031Z,3.67
2022-08-27T19:15:17.829Z,3.13
2022-08-27T19:18:23.579Z,3.33
2022-08-27T19:21:27.553Z,3.57
2022-08-27T19:24:31.384Z,3.03
2022-08-27T19:27:42.612Z,3.10
2022-08-27T19:30:48.070Z,3.90
2022-08-27T19:33:53.296Z,3.77
2022-08-27T19:37:06.520Z,3.30
2022-08-27T19:40:12.139Z,3.47
2022-08-27T19:43:17.598Z,4.10
2022-08-27T19:46:25.318Z,3.67
2022-08-27T19:49:29.102Z,3.77
2022-08-27T19:52:32.878Z,3.37
2022-08-27T19:55:36.847Z,3.90
2022-08-27T19:58:42.335Z,3.50
2022-08-27T20:01:46.307Z,3.83
2022-08-27T20:05:14.235Z,4.13
2022-08-27T20:08:13.747Z,3.87
2022-08-27T20:11:18.353Z,3.67
2022-08-27T20:14:28.893Z,3.50
2022-08-27T20:17:34.699Z,3.60
2022-08-27T20:20:38.851Z,3.43
2022-08-27T20:23:42.439Z,4.10
2022-08-27T20:26:47.157Z,3.50
2022-08-27T20:29:52.600Z,4.20
2022-08-27T20:32:57.300Z,3.57
2022-08-27T20:36:02.684Z,3.77
2022-08-27T20:39:06.779Z,3.13
2022-08-27T20:42:11.239Z,3.87
2022-08-27T20:45:19.664Z,3.80
2022-08-27T20:48:23.632Z,4.63
2022-08-27T20:51:30.772Z,4.33
2022-08-27T20:54:54.372Z,4.57
2022-08-27T20:58:15.553Z,4.40
2022-08-27T21:01:24.169Z,4.43
2022-08-27T21:04:28.018Z,4.50
2022-08-27T21:07:31.755Z,4.77
2022-08-27T21:10:36.789Z,5.17
2022-08-27T21:13:55.244Z,5.57
2022-08-27T21:17:01.731Z,5.20
2022-08-27T21:20:08.052Z,4.50
2022-08-27T21:23:11.671Z,4.33
2022-08-27T21:26:15.447Z,4.43
2022-08-27T21:29:21.254Z,4.67
2022-08-27T21:32:26.686Z,4.20
2022-08-27T21:35:32.971Z,4.53
2022-08-27T21:38:36.582Z,4.70
2022-08-27T21:41:40.373Z,4.83
2022-08-27T21:44:44.432Z,4.50
2022-08-27T21:47:52.390Z,4.53
2022-08-27T21:50:56.399Z,4.20
2022-08-27T21:54:01.041Z,4.80
2022-08-27T21:57:05.344Z,4.60
2022-08-27T22:00:37.737Z,4.90
2022-08-27T22:03:46.899Z,5.00
2022-08-27T22:06:50.867Z,4.37
2022-08-27T22:09:58.455Z,4.97
2022-08-27T22:13:02.450Z,4.43
2022-08-27T22:16:06.762Z,5.13
2022-08-27T22:19:11.962Z,5.53
2022-08-27T22:22:15.575Z,4.27
2022-08-27T22:25:19.531Z,5.97
2022-08-27T22:28:23.299Z,5.77
2022-08-27T22:31:27.479Z,5.17
2022-08-27T22:34:32.488Z,4.93
2022-08-27T22:37:36.440Z,5.37
2022-08-27T22:40:41.280Z,4.87
2022-08-27T22:43:45.408Z,5.50
2022-08-27T22:46:49.102Z,5.77
2022-08-27T22:49:54.292Z,4.73
2022-08-27T22:53:01.374Z,5.30
2022-08-27T22:56:05.504Z,5.10
2022-08-27T22:59:09.128Z,5.80
2022-08-27T23:02:12.805Z,5.50
2022-08-27T23:05:18.186Z,6.53
2022-08-27T23:08:23.132Z,5.03
2022-08-27T23:11:28.388Z,6.40
2022-08-27T23:14:33.334Z,5.53
2022-08-27T23:17:37.302Z,6.10
2022-08-27T23:20:42.434Z,5.97
2022-08-27T23:23:46.071Z,7.57
2022-08-27T23:27:07.022Z,8.40
2022-08-27T23:30:13.163Z,7.53
2022-08-27T23:33:16.927Z,6.90
2022-08-27T23:36:22.590Z,6.73
2022-08-27T23:39:26.251Z,6.40
2022-08-27T23:42:29.891Z,5.90
2022-08-27T23:45:37.034Z,6.43
2022-08-27T23:48:43.540Z,7.20
2022-08-27T23:51:48.551Z,7.40
2022-08-27T23:54:52.276Z,5.30
2022-08-27T23:57:57.808Z,5.60
